createdAt,value
2022-10-20T00:00:39.895Z,60.15
2022-10-20T00:01:44.241Z,59.91
2022-10-20T00:02:48.557Z,60.12
2022-10-20T00:03:52.740Z,60.14
2022-10-20T00:04:56.949Z,59.99
2022-10-20T00:06:01.184Z,60.16
2022-10-20T00:07:05.320Z,59.92
2022-10-20T00:08:09.450Z,60.08
2022-10-20T00:09:13.752Z,59.84
2022-10-20T00:10:17.870Z,59.78
2022-10-20T00:11:22.049Z,59.75
2022-10-20T00:12:26.179Z,59.82
2022-10-20T00:13:30.303Z,59.78
2022-10-20T00:14:34.431Z,59.77
2022-10-20T00:15:38.538Z,59.74
2022-10-20T00:16:42.676Z,59.7
2022-10-20T00:17:46.781Z,59.79
2022-10-20T00:18:50.918Z,59.79
2022-10-20T00:19:55.007Z,59.72
2022-10-20T00:20:59.106Z,59.66
2022-10-20T00:22:03.214Z,59.56
2022-10-20T00:23:07.346Z,59.53
2022-10-20T00:24:11.482Z,59.54
2022-10-20T00:25:15.617Z,59.54
2022-10-20T00:26:19.757Z,59.51
2022-10-20T00:27:23.926Z,59.62
2022-10-20T00:28:28.019Z,59.62
2022-10-20T00:29:32.115Z,59.56
2022-10-20T00:30:36.289Z,59.53
2022-10-20T00:31:40.478Z,59.43
2022-10-20T00:32:44.598Z,59.39
2022-10-20T00:33:48.736Z,59.42
2022-10-20T00:34:52.834Z,59.56
2022-10-20T00:35:56.942Z,59.65
2022-10-20T00:37:01.047Z,59.64
2022-10-20T00:38:05.304Z,59.62
2022-10-20T00:39:09.487Z,59.48
2022-10-20T00:40:13.656Z,59.51
2022-10-20T00:41:17.764Z,59.55
2022-10-20T00:42:21.915Z,59.63
2022-10-20T00:43:26.091Z,59.65
2022-10-20T00:44:30.218Z,59.59
2022-10-20T00:45:34.311Z,59.55
2022-10-20T00:46:38.434Z,59.49
2022-10-20T00:47:42.813Z,60.19
2022-10-20T00:48:47.030Z,60.09
2022-10-20T00:49:51.152Z,60.1
2022-10-20T00:50:55.268Z,60.29
2022-10-20T00:51:59.394Z,60.34
2022-10-20T00:53:03.520Z,60.39
2022-10-20T00:54:07.654Z,60.4
2022-10-20T00:55:11.849Z,60.35
2022-10-20T00:56:15.975Z,60.26
2022-10-20T00:57:20.118Z,60.32
2022-10-20T00:58:24.290Z,60.4
2022-10-20T00:59:28.546Z,60.33
2022-10-20T01:00:32.701Z,60.35
2022-10-20T01:01:37.006Z,60.34
2022-10-20T01:02:41.180Z,60.27
2022-10-20T01:03:45.295Z,60.26
2022-10-20T01:04:49.429Z,60.23
2022-10-20T01:05:53.567Z,60.26
2022-10-20T01:06:57.741Z,60.22
2022-10-20T01:08:01.967Z,60.27
2022-10-20T01:09:06.449Z,60.27
2022-10-20T01:10:10.634Z,60.2
2022-10-20T01:11:14.742Z,60.16
2022-10-20T01:12:19.017Z,60.23
2022-10-20T01:13:23.148Z,60.15
2022-10-20T01:14:27.255Z,60.21
2022-10-20T01:15:31.415Z,60.19
2022-10-20T01:16:35.528Z,60.26
2022-10-20T01:17:40.437Z,60.25
2022-10-20T01:18:44.547Z,60.28
2022-10-20T01:19:48.679Z,60.4
2022-10-20T01:20:52.820Z,59.89
2022-10-20T01:21:56.940Z,60.08
2022-10-20T01:23:01.018Z,60.2
2022-10-20T01:24:05.171Z,60.29
2022-10-20T01:25:09.279Z,60.3
2022-10-20T01:26:13.473Z,60.29
2022-10-20T01:27:17.610Z,60.36
2022-10-20T01:28:21.739Z,60.36
2022-10-20T01:29:25.888Z,60.36
2022-10-20T01:30:30.009Z,60.28
2022-10-20T01:31:34.145Z,60.2
2022-10-20T01:32:38.301Z,60.17
2022-10-20T01:33:42.420Z,60.15
2022-10-20T01:34:53.879Z,60.02
2022-10-20T01:35:58.022Z,60.19
2022-10-20T01:37:02.155Z,60.06
2022-10-20T01:38:06.265Z,60.47
2022-10-20T01:39:10.411Z,60.04
2022-10-20T01:40:14.500Z,59.98
2022-10-20T01:41:18.614Z,60.02
2022-10-20T01:42:22.868Z,60.06
2022-10-20T01:43:26.966Z,60.06
2022-10-20T01:44:31.084Z,60
2022-10-20T01:45:35.215Z,60.03
2022-10-20T01:46:39.316Z,60.05
2022-10-20T01:47:43.467Z,59.95
2022-10-20T01:48:47.573Z,59.96
2022-10-20T01:49:51.742Z,59.84
2022-10-20T01:50:55.834Z,59.74
2022-10-20T01:51:59.996Z,59.64
2022-10-20T01:53:04.116Z,59.63
2022-10-20T01:54:08.225Z,59.65
2022-10-20T01:55:12.351Z,59.71
2022-10-20T01:56:16.474Z,59.75
2022-10-20T01:57:20.587Z,59.81
2022-10-20T01:58:24.712Z,59.76
2022-10-20T01:59:28.798Z,59.73
2022-10-20T02:00:32.910Z,59.74
2022-10-20T02:01:37.136Z,59.71
2022-10-20T02:02:41.482Z,59.63
2022-10-20T02:03:45.585Z,59.83
2022-10-20T02:04:49.722Z,59.95
2022-10-20T02:05:53.835Z,59.97
2022-10-20T02:06:57.950Z,59.99
2022-10-20T02:08:02.037Z,60.15
2022-10-20T02:09:06.265Z,59.98
2022-10-20T02:10:10.360Z,60.1
2022-10-20T02:11:14.478Z,59.82
2022-10-20T02:12:18.589Z,59.81
2022-10-20T02:13:22.684Z,59.9
2022-10-20T02:14:26.787Z,59.93
2022-10-20T02:15:30.919Z,59.84
2022-10-20T02:16:35.023Z,59.79
2022-10-20T02:17:39.138Z,59.68
2022-10-20T02:18:43.240Z,59.82
2022-10-20T02:19:47.572Z,59.8
2022-10-20T02:20:51.648Z,59.78
2022-10-20T02:21:55.763Z,59.74
2022-10-20T02:22:59.879Z,59.68
2022-10-20T02:24:03.990Z,59.74
2022-10-20T02:25:08.097Z,59.79
2022-10-20T02:26:12.191Z,59.73
2022-10-20T02:27:16.288Z,59.68
2022-10-20T02:28:20.374Z,59.65
2022-10-20T02:29:24.486Z,59.71
2022-10-20T02:30:28.608Z,59.77
2022-10-20T02:31:32.750Z,59.76
2022-10-20T02:32:38.168Z,59.77
2022-10-20T02:33:42.455Z,60.27
2022-10-20T02:34:46.595Z,60.26
2022-10-20T02:35:50.685Z,60.43
2022-10-20T02:36:54.764Z,60.49
2022-10-20T02:37:58.864Z,60.45
2022-10-20T02:39:02.980Z,59.97
2022-10-20T02:40:07.133Z,59.72
2022-10-20T02:41:11.252Z,59.5
2022-10-20T02:42:15.386Z,59.19
2022-10-20T02:43:19.553Z,58.97
2022-10-20T02:44:23.670Z,58.77
2022-10-20T02:45:27.802Z,58.61
2022-10-20T02:46:31.949Z,58.46
2022-10-20T02:47:37.404Z,58.26
2022-10-20T02:48:41.645Z,58.15
2022-10-20T02:49:45.761Z,58.02
2022-10-20T02:50:49.898Z,57.96
2022-10-20T02:51:54.010Z,57.87
2022-10-20T02:52:58.115Z,57.58
2022-10-20T02:54:02.204Z,57.43
2022-10-20T02:55:06.600Z,57.25
2022-10-20T02:56:10.757Z,57.13
2022-10-20T02:57:14.847Z,56.93
2022-10-20T02:58:19.003Z,56.89
2022-10-20T02:59:23.125Z,56.79
2022-10-20T03:00:27.316Z,56.5
2022-10-20T03:01:31.699Z,56.36
2022-10-20T03:02:35.840Z,56.32
2022-10-20T03:03:40.004Z,56.26
2022-10-20T03:04:44.173Z,56.27
2022-10-20T03:05:48.294Z,56.25
2022-10-20T03:06:52.417Z,56.39
2022-10-20T03:07:56.511Z,56.5
2022-10-20T03:09:00.826Z,56.63
2022-10-20T03:10:04.931Z,56.74
2022-10-20T03:11:09.024Z,56.86
2022-10-20T03:12:13.156Z,56.97
2022-10-20T03:13:17.534Z,57.03
2022-10-20T03:14:21.675Z,57.12
2022-10-20T03:15:25.828Z,57.27
2022-10-20T03:16:29.946Z,57.32
2022-10-20T03:17:34.623Z,57.21
2022-10-20T03:18:38.981Z,57.21
2022-10-20T03:19:43.091Z,57.08
2022-10-20T03:20:47.178Z,57.06
2022-10-20T03:21:51.283Z,56.91
2022-10-20T03:22:55.396Z,56.71
2022-10-20T03:23:59.497Z,56.64
2022-10-20T03:25:03.617Z,56.48
2022-10-20T03:26:07.732Z,56.37
2022-10-20T03:27:11.840Z,56.27
2022-10-20T03:28:15.953Z,56.13
2022-10-20T03:29:20.053Z,55.99
2022-10-20T03:30:24.169Z,56
2022-10-20T03:31:28.307Z,56.02
2022-10-20T03:32:32.521Z,56.14
2022-10-20T03:33:36.678Z,56.2
2022-10-20T03:34:40.816Z,56.17
2022-10-20T03:35:44.950Z,56.29
2022-10-20T03:36:49.073Z,56.39
2022-10-20T03:37:53.168Z,56.58
2022-10-20T03:38:57.275Z,56.71
2022-10-20T03:40:01.396Z,56.78
2022-10-20T03:41:05.548Z,56.82
2022-10-20T03:42:09.647Z,56.92
2022-10-20T03:43:13.765Z,57.03
2022-10-20T03:44:17.873Z,57.11
2022-10-20T03:45:21.948Z,57.17
2022-10-20T03:46:26.057Z,57.23
2022-10-20T03:47:30.187Z,57.37
2022-10-20T03:48:34.312Z,57.38
2022-10-20T03:49:38.464Z,57.44
2022-10-20T03:50:42.575Z,57.5
2022-10-20T03:51:55.480Z,57.56
2022-10-20T03:52:59.590Z,57.62
2022-10-20T03:54:03.694Z,57.67
2022-10-20T03:55:07.828Z,57.74
2022-10-20T03:56:11.915Z,57.75
2022-10-20T03:57:16.029Z,57.88
2022-10-20T03:58:20.125Z,57.85
2022-10-20T03:59:31.289Z,57.92
2022-10-20T04:00:35.465Z,57.98
2022-10-20T04:01:39.806Z,58.05
2022-10-20T04:02:44.083Z,58.1
2022-10-20T04:03:48.250Z,58.12
2022-10-20T04:04:52.364Z,58.17
2022-10-20T04:05:56.491Z,58.4
2022-10-20T04:07:00.607Z,58.46
2022-10-20T04:08:04.939Z,58.12
2022-10-20T04:09:09.436Z,58.05
2022-10-20T04:10:13.599Z,58.08
2022-10-20T04:11:17.713Z,58.29
2022-10-20T04:12:21.835Z,58.05
2022-10-20T04:13:25.936Z,58.11
2022-10-20T04:14:30.049Z,57.57
2022-10-20T04:15:34.202Z,57.47
2022-10-20T04:16:38.357Z,57.55
2022-10-20T04:17:42.530Z,57.38
2022-10-20T04:18:46.698Z,57.44
2022-10-20T04:19:50.866Z,57.45
2022-10-20T04:20:54.974Z,57.57
2022-10-20T04:21:59.110Z,57.61
2022-10-20T04:23:03.237Z,57.54
2022-10-20T04:24:07.400Z,57.56
2022-10-20T04:25:11.480Z,57.85
2022-10-20T04:26:15.658Z,57.72
2022-10-20T04:27:19.793Z,57.77
2022-10-20T04:28:23.898Z,57.63
2022-10-20T04:29:28.053Z,57.59
2022-10-20T04:30:32.186Z,57.62
2022-10-20T04:31:36.322Z,57.6
2022-10-20T04:32:40.464Z,57.45
2022-10-20T04:33:44.657Z,58.13
2022-10-20T04:34:48.766Z,58.42
2022-10-20T04:35:52.902Z,58.08
2022-10-20T04:36:57.020Z,57.92
2022-10-20T04:38:01.165Z,57.98
2022-10-20T04:39:05.316Z,57.98
2022-10-20T04:40:09.496Z,57.81
2022-10-20T04:41:13.637Z,57.82
2022-10-20T04:42:17.884Z,57.83
2022-10-20T04:43:22.008Z,57.78
2022-10-20T04:44:26.125Z,57.33
2022-10-20T04:45:30.300Z,58
2022-10-20T04:46:34.439Z,58.23
2022-10-20T04:47:39.710Z,58.19
2022-10-20T04:48:44.092Z,58.04
2022-10-20T04:49:48.225Z,57.74
2022-10-20T04:50:52.541Z,57.27
2022-10-20T04:52:02.730Z,56.93
2022-10-20T04:53:06.834Z,56.86
2022-10-20T04:54:11.090Z,56.78
2022-10-20T04:55:15.352Z,56.81
2022-10-20T04:56:19.486Z,57.03
2022-10-20T04:57:23.660Z,57.05
2022-10-20T04:58:27.806Z,56.61
2022-10-20T04:59:31.961Z,56.26
2022-10-20T05:00:36.098Z,56.31
2022-10-20T05:01:40.419Z,56.52
2022-10-20T05:02:44.617Z,56.39
2022-10-20T05:03:48.765Z,56.82
2022-10-20T05:04:52.895Z,57.47
2022-10-20T05:05:57.010Z,57.58
2022-10-20T05:07:01.279Z,57.7
2022-10-20T05:08:05.445Z,57.58
2022-10-20T05:09:09.891Z,57.43
2022-10-20T05:10:14.074Z,57.8
2022-10-20T05:11:18.293Z,58.06
2022-10-20T05:12:22.446Z,57.91
2022-10-20T05:13:26.639Z,57.69
2022-10-20T05:14:30.895Z,57.33
2022-10-20T05:15:35.051Z,57.43
2022-10-20T05:16:39.161Z,57.65
2022-10-20T05:17:43.284Z,57.94
2022-10-20T05:18:47.383Z,57.46
2022-10-20T05:19:51.471Z,57.82
2022-10-20T05:21:12.105Z,57.56
2022-10-20T05:22:16.253Z,57.72
2022-10-20T05:23:20.375Z,57.9
2022-10-20T05:24:30.801Z,58.1
2022-10-20T05:25:38.715Z,58.32
2022-10-20T05:26:42.794Z,58.52
2022-10-20T05:27:46.915Z,58.59
2022-10-20T05:28:51.044Z,58.65
2022-10-20T05:29:55.152Z,58.69
2022-10-20T05:31:03.317Z,58.88
2022-10-20T05:32:07.444Z,58.93
2022-10-20T05:33:11.568Z,58.98
2022-10-20T05:34:15.690Z,59.05
2022-10-20T05:35:19.814Z,59.03
2022-10-20T05:36:24.008Z,58.94
2022-10-20T05:37:29.184Z,58.7
2022-10-20T05:38:34.326Z,58.81
2022-10-20T05:39:39.073Z,58.91
2022-10-20T05:40:43.222Z,58.97
2022-10-20T05:41:47.435Z,58.85
2022-10-20T05:42:51.572Z,58.45
2022-10-20T05:43:55.771Z,58.24
2022-10-20T05:44:59.871Z,58.18
2022-10-20T05:46:03.978Z,58.39
2022-10-20T05:47:08.099Z,58.27
2022-10-20T05:48:12.217Z,58.15
2022-10-20T05:49:16.755Z,57.9
2022-10-20T05:50:20.844Z,57.98
2022-10-20T05:51:24.964Z,57.7
2022-10-20T05:52:29.105Z,57.8
2022-10-20T05:53:33.407Z,57.51
2022-10-20T05:54:37.539Z,57.47
2022-10-20T05:55:41.722Z,57.44
2022-10-20T05:56:45.853Z,57.06
2022-10-20T05:57:50.021Z,56.65
2022-10-20T05:58:54.123Z,56.72
2022-10-20T05:59:58.291Z,56.62
2022-10-20T06:01:02.450Z,56.69
2022-10-20T06:02:06.600Z,56.73
2022-10-20T06:03:10.767Z,56.78
2022-10-20T06:04:14.966Z,56.63
2022-10-20T06:05:19.055Z,56.08
2022-10-20T06:06:23.175Z,55.87
2022-10-20T06:07:27.301Z,55.44
2022-10-20T06:08:31.675Z,55.51
2022-10-20T06:09:35.813Z,55.7
2022-10-20T06:10:39.951Z,55.62
2022-10-20T06:11:44.055Z,55.54
2022-10-20T06:12:48.567Z,56.03
2022-10-20T06:13:55.216Z,56.43
2022-10-20T06:14:59.338Z,56.74
2022-10-20T06:16:03.543Z,57.12
2022-10-20T06:17:07.662Z,57.38
2022-10-20T06:18:11.814Z,57.4
2022-10-20T06:19:15.934Z,57.15
2022-10-20T06:20:20.074Z,57.62
2022-10-20T06:21:24.223Z,57.58
2022-10-20T06:22:28.362Z,57.64
2022-10-20T06:23:32.489Z,57.74
2022-10-20T06:24:36.665Z,57.84
2022-10-20T06:25:40.833Z,58.06
2022-10-20T06:26:45.007Z,57.79
2022-10-20T06:27:49.122Z,57.86
2022-10-20T06:28:53.474Z,57.78
2022-10-20T06:29:57.613Z,57.85
2022-10-20T06:31:01.720Z,57.99
2022-10-20T06:32:06.144Z,57.94
2022-10-20T06:33:10.384Z,58.04
2022-10-20T06:34:14.531Z,58.17
2022-10-20T06:35:18.705Z,58.3
2022-10-20T06:36:22.855Z,58.32
2022-10-20T06:37:26.967Z,58.18
2022-10-20T06:38:31.066Z,57.53
2022-10-20T06:39:35.215Z,57.98
2022-10-20T06:40:39.374Z,57.78
2022-10-20T06:41:43.538Z,57.73
2022-10-20T06:42:47.891Z,57.84
2022-10-20T06:43:52.008Z,58.06
2022-10-20T06:44:56.173Z,58.19
2022-10-20T06:46:00.316Z,58.33
2022-10-20T06:47:04.450Z,58.43
2022-10-20T06:48:08.550Z,58.46
2022-10-20T06:49:12.710Z,58.51
2022-10-20T06:50:16.819Z,58.49
2022-10-20T06:51:21.015Z,58.46
2022-10-20T06:52:25.105Z,58.48
2022-10-20T06:53:29.225Z,58.48
2022-10-20T06:54:33.325Z,58.46
2022-10-20T06:55:37.477Z,58.46
2022-10-20T06:56:41.595Z,58.42
2022-10-20T06:57:45.698Z,58.39
2022-10-20T06:58:49.888Z,58.46
2022-10-20T06:59:54.010Z,58.31
2022-10-20T07:00:58.124Z,58.37
2022-10-20T07:02:02.576Z,58.31
2022-10-20T07:03:06.796Z,58.27
2022-10-20T07:04:10.949Z,58.29
2022-10-20T07:05:15.060Z,58.27
2022-10-20T07:06:19.224Z,58.17
2022-10-20T07:07:23.417Z,58.22
2022-10-20T07:08:27.701Z,58.27
2022-10-20T07:09:31.972Z,58.1
2022-10-20T07:10:36.080Z,58.2
2022-10-20T07:11:40.210Z,58.18
2022-10-20T07:12:44.312Z,58.12
2022-10-20T07:13:48.503Z,58.05
2022-10-20T07:14:52.642Z,58.03
2022-10-20T07:15:56.794Z,58.11
2022-10-20T07:17:00.981Z,57.93
2022-10-20T07:18:05.115Z,57.89
2022-10-20T07:19:09.223Z,57.81
2022-10-20T07:20:13.352Z,57.89
2022-10-20T07:21:17.491Z,57.93
2022-10-20T07:22:21.711Z,57.95
2022-10-20T07:23:25.838Z,57.9
2022-10-20T07:24:30.003Z,57.85
2022-10-20T07:25:34.149Z,57.79
2022-10-20T07:26:38.291Z,57.77
2022-10-20T07:27:42.412Z,57.87
2022-10-20T07:28:46.532Z,57.74
2022-10-20T07:29:50.842Z,57.87
2022-10-20T07:30:54.983Z,57.76
2022-10-20T07:32:03.130Z,57.65
2022-10-20T07:33:07.646Z,57.6
2022-10-20T07:34:29.406Z,57.7
2022-10-20T07:35:33.548Z,57.64
2022-10-20T07:36:38.212Z,57.62
2022-10-20T07:37:42.340Z,57.48
2022-10-20T07:38:46.473Z,57.46
2022-10-20T07:39:50.587Z,57.57
2022-10-20T07:40:57.305Z,57.68
2022-10-20T07:42:03.534Z,57.52
2022-10-20T07:43:07.654Z,57.68
2022-10-20T07:44:11.780Z,57.67
2022-10-20T07:45:15.901Z,57.56
2022-10-20T07:46:20.004Z,57.58
2022-10-20T07:47:24.103Z,57.53
2022-10-20T07:48:28.226Z,57.6
2022-10-20T07:49:47.787Z,57.52
2022-10-20T07:50:51.898Z,57.55
2022-10-20T07:51:56.016Z,57.38
2022-10-20T07:53:00.113Z,57.33
2022-10-20T07:54:04.237Z,57.42
2022-10-20T07:55:39.469Z,57.42
2022-10-20T07:56:43.643Z,57.44
2022-10-20T07:57:47.760Z,57.35
2022-10-20T07:58:51.871Z,57.51
2022-10-20T07:59:55.993Z,57.5
2022-10-20T08:01:00.166Z,57.29
2022-10-20T08:02:04.560Z,57.4
2022-10-20T08:03:08.699Z,57.32
2022-10-20T08:04:12.838Z,57.3
2022-10-20T08:05:16.981Z,57.33
2022-10-20T08:06:21.118Z,57.29
2022-10-20T08:07:25.236Z,57.31
2022-10-20T08:08:29.544Z,57.08
2022-10-20T08:09:35.936Z,57.05
2022-10-20T08:10:40.105Z,56.78
2022-10-20T08:11:44.408Z,56.83
2022-10-20T08:12:48.538Z,56.69
2022-10-20T08:13:52.650Z,56.82
2022-10-20T08:14:56.849Z,56.79
2022-10-20T08:16:22.336Z,56.55
2022-10-20T08:17:26.591Z,56.67
2022-10-20T08:19:22.173Z,56.34
2022-10-20T08:20:35.421Z,56.46
2022-10-20T08:21:39.556Z,56.62
2022-10-20T08:22:43.723Z,56.42
2022-10-20T08:23:47.854Z,56.51
2022-10-20T08:24:52.018Z,56.6
2022-10-20T08:25:56.130Z,56.4
2022-10-20T08:27:00.244Z,56.19
2022-10-20T08:28:04.411Z,56.24
2022-10-20T08:29:08.539Z,56.1
2022-10-20T08:30:26.993Z,56.04
2022-10-20T08:31:31.207Z,55.66
2022-10-20T08:32:36.322Z,55.06
2022-10-20T08:33:40.607Z,55.24
2022-10-20T08:34:44.791Z,55.05
2022-10-20T08:35:48.924Z,55.27
2022-10-20T08:36:53.084Z,55.13
2022-10-20T08:37:57.234Z,55.41
2022-10-20T08:39:07.584Z,55.49
2022-10-20T08:40:11.747Z,55.62
2022-10-20T08:41:15.910Z,55.63
2022-10-20T08:42:20.064Z,55.6
2022-10-20T08:43:24.211Z,55.59
2022-10-20T08:44:28.454Z,55.56
2022-10-20T08:45:39.568Z,55.58
2022-10-20T08:46:43.698Z,55.57
2022-10-20T08:47:47.780Z,55.51
2022-10-20T08:48:51.908Z,55.43
2022-10-20T08:49:56.094Z,55.39
2022-10-20T08:51:00.195Z,55.37
2022-10-20T08:52:04.305Z,55.37
2022-10-20T08:53:08.430Z,55.29
2022-10-20T08:54:12.570Z,55.27
2022-10-20T08:55:16.859Z,55.26
2022-10-20T08:56:20.998Z,55.25
2022-10-20T08:57:25.115Z,55.27
2022-10-20T08:58:29.219Z,55.19
2022-10-20T08:59:33.347Z,55.2
2022-10-20T09:00:37.442Z,55.18
2022-10-20T09:01:41.865Z,55.12
2022-10-20T09:02:46.020Z,55.11
2022-10-20T09:03:50.206Z,55.1
2022-10-20T09:04:57.577Z,55.02
2022-10-20T09:06:01.735Z,54.96
2022-10-20T09:07:05.863Z,54.95
2022-10-20T09:08:10.123Z,54.92
2022-10-20T09:09:14.629Z,54.85
2022-10-20T09:10:18.801Z,54.91
2022-10-20T09:11:22.955Z,54.95
2022-10-20T09:12:32.835Z,54.97
2022-10-20T09:13:37.142Z,54.93
2022-10-20T09:14:41.320Z,54.93
2022-10-20T09:15:45.431Z,54.85
2022-10-20T09:17:02.254Z,54.84
2022-10-20T09:18:06.406Z,54.8
2022-10-20T09:19:10.506Z,54.74
2022-10-20T09:20:14.631Z,54.71
2022-10-20T09:21:18.762Z,54.64
2022-10-20T09:22:22.877Z,54.58
2022-10-20T09:23:44.428Z,54.61
2022-10-20T09:24:48.629Z,54.52
2022-10-20T09:25:52.782Z,54.5
2022-10-20T09:27:01.782Z,54.53
2022-10-20T09:28:05.902Z,54.39
2022-10-20T09:29:16.166Z,54.53
2022-10-20T09:30:20.606Z,54.5
2022-10-20T09:31:24.749Z,54.48
2022-10-20T09:32:49.173Z,54.46
2022-10-20T09:33:53.329Z,54.41
2022-10-20T09:34:57.423Z,54.41
2022-10-20T09:36:01.534Z,54.37
2022-10-20T09:37:05.669Z,54.3
2022-10-20T09:38:09.782Z,54.3
2022-10-20T09:39:13.887Z,54.31
2022-10-20T09:40:18.067Z,54.3
2022-10-20T09:41:22.237Z,54.24
2022-10-20T09:42:26.367Z,54.3
2022-10-20T09:43:30.480Z,54.04
2022-10-20T09:44:34.576Z,54.14
2022-10-20T09:45:38.703Z,54.24
2022-10-20T09:46:42.820Z,54.29
2022-10-20T09:47:46.926Z,54.28
2022-10-20T09:48:51.068Z,54.26
2022-10-20T09:50:02.065Z,54.19
2022-10-20T09:51:06.421Z,54.19
2022-10-20T09:52:10.587Z,54.2
2022-10-20T09:53:14.716Z,54.18
2022-10-20T09:54:18.844Z,54.13
2022-10-20T09:55:22.982Z,54.09
2022-10-20T09:56:27.100Z,54.14
2022-10-20T09:57:31.192Z,53.93
2022-10-20T09:58:35.326Z,54.13
2022-10-20T09:59:39.482Z,54.07
2022-10-20T10:00:43.865Z,54
2022-10-20T10:01:48.014Z,54.07
2022-10-20T10:02:52.114Z,54.08
2022-10-20T10:03:56.238Z,54.02
2022-10-20T10:05:00.375Z,54.01
2022-10-20T10:06:04.477Z,54.01
2022-10-20T10:07:08.576Z,53.97
2022-10-20T10:08:12.715Z,53.8
2022-10-20T10:09:19.886Z,54.07
2022-10-20T10:10:24.041Z,53.94
2022-10-20T10:11:28.159Z,54.01
2022-10-20T10:12:32.308Z,53.98
2022-10-20T10:13:36.554Z,53.91
2022-10-20T10:14:40.695Z,54.01
2022-10-20T10:15:44.876Z,53.93
2022-10-20T10:16:48.965Z,53.88
2022-10-20T10:17:53.129Z,53.97
2022-10-20T10:18:57.255Z,54.01
2022-10-20T10:20:01.357Z,53.97
2022-10-20T10:21:05.458Z,53.94
2022-10-20T10:22:09.635Z,53.93
2022-10-20T10:23:13.750Z,53.89
2022-10-20T10:24:17.900Z,53.92
2022-10-20T10:25:22.011Z,53.92
2022-10-20T10:26:26.137Z,53.87
2022-10-20T10:27:30.241Z,53.88
2022-10-20T10:28:34.387Z,53.81
2022-10-20T10:29:38.656Z,53.87
2022-10-20T10:30:45.722Z,53.87
2022-10-20T10:31:52.328Z,53.88
2022-10-20T10:32:56.450Z,53.91
2022-10-20T10:34:00.537Z,53.86
2022-10-20T10:35:04.709Z,53.83
2022-10-20T10:36:08.838Z,53.79
2022-10-20T10:37:13.226Z,53.82
2022-10-20T10:38:17.383Z,53.86
2022-10-20T10:39:21.525Z,53.85
2022-10-20T10:40:25.658Z,53.86
2022-10-20T10:41:29.863Z,53.89
2022-10-20T10:42:34.513Z,53.86
2022-10-20T10:43:38.907Z,53.91
2022-10-20T10:44:43.008Z,53.87
2022-10-20T10:45:47.155Z,53.88
2022-10-20T10:46:51.296Z,53.83
2022-10-20T10:47:55.424Z,53.81
2022-10-20T10:48:59.705Z,53.82
2022-10-20T10:50:03.804Z,53.83
2022-10-20T10:51:07.946Z,53.79
2022-10-20T10:52:12.066Z,53.85
2022-10-20T10:53:16.173Z,53.84
2022-10-20T10:54:20.349Z,53.84
2022-10-20T10:55:50.679Z,53.79
2022-10-20T10:56:54.822Z,53.78
2022-10-20T10:57:58.945Z,53.79
2022-10-20T10:59:03.067Z,53.83
2022-10-20T11:00:07.154Z,53.82
2022-10-20T11:01:11.668Z,53.82
2022-10-20T11:02:15.800Z,53.87
2022-10-20T11:03:19.958Z,53.79
2022-10-20T11:04:24.280Z,53.83
2022-10-20T11:05:28.388Z,53.82
2022-10-20T11:06:32.543Z,53.78
2022-10-20T11:07:37.970Z,53.77
2022-10-20T11:08:42.421Z,53.77
2022-10-20T11:09:46.635Z,53.81
2022-10-20T11:10:50.738Z,53.76
2022-10-20T11:11:54.894Z,53.77
2022-10-20T11:12:58.992Z,53.79
2022-10-20T11:14:03.113Z,53.8
2022-10-20T11:15:07.239Z,53.83
2022-10-20T11:16:11.368Z,53.85
2022-10-20T11:17:15.503Z,53.82
2022-10-20T11:18:19.655Z,53.81
2022-10-20T11:19:23.941Z,53.81
2022-10-20T11:20:28.089Z,53.8
2022-10-20T11:21:32.254Z,53.81
2022-10-20T11:22:36.395Z,53.75
2022-10-20T11:23:40.575Z,53.75
2022-10-20T11:24:44.686Z,53.84
2022-10-20T11:25:48.792Z,53.82
2022-10-20T11:26:52.980Z,53.83
2022-10-20T11:27:57.080Z,53.81
2022-10-20T11:29:01.195Z,53.78
2022-10-20T11:30:05.328Z,53.83
2022-10-20T11:31:09.433Z,53.85
2022-10-20T11:32:13.545Z,53.84
2022-10-20T11:33:17.655Z,53.81
2022-10-20T11:34:21.755Z,53.83
2022-10-20T11:35:25.892Z,53.81
2022-10-20T11:36:30.008Z,53.81
2022-10-20T11:37:34.574Z,53.81
2022-10-20T11:38:38.884Z,53.82
2022-10-20T11:39:42.992Z,53.86
2022-10-20T11:40:47.097Z,53.88
2022-10-20T11:41:51.258Z,53.89
2022-10-20T11:42:55.391Z,53.84
2022-10-20T11:43:59.515Z,53.9
2022-10-20T11:45:03.647Z,53.89
2022-10-20T11:46:07.811Z,53.92
2022-10-20T11:47:11.939Z,53.94
2022-10-20T11:48:16.063Z,53.99
2022-10-20T11:49:20.179Z,54.07
2022-10-20T11:50:24.275Z,54.08
2022-10-20T11:51:28.412Z,54.1
2022-10-20T11:52:32.515Z,54.17
2022-10-20T11:53:36.636Z,54.17
2022-10-20T11:54:40.735Z,54.18
2022-10-20T11:55:44.884Z,54.2
2022-10-20T11:56:48.994Z,54.22
2022-10-20T11:57:54.524Z,54.26
2022-10-20T11:59:00.605Z,54.3
2022-10-20T12:00:04.912Z,54.27
2022-10-20T12:01:09.097Z,54.27
2022-10-20T12:02:13.381Z,54.26
2022-10-20T12:03:17.546Z,54.21
2022-10-20T12:04:21.682Z,54.21
2022-10-20T12:05:25.810Z,54.28
2022-10-20T12:06:29.925Z,54.24
2022-10-20T12:07:34.023Z,54.28
2022-10-20T12:08:38.308Z,54.27
2022-10-20T12:09:42.439Z,54.33
2022-10-20T12:10:46.584Z,54.37
2022-10-20T12:11:50.684Z,54.34
2022-10-20T12:12:54.807Z,54.3
2022-10-20T12:13:58.938Z,54.38
2022-10-20T12:15:03.050Z,54.48
2022-10-20T12:16:07.168Z,54.54
2022-10-20T12:17:11.311Z,54.66
2022-10-20T12:18:15.433Z,54.63
2022-10-20T12:19:19.692Z,54.74
2022-10-20T12:20:23.861Z,54.71
2022-10-20T12:21:33.744Z,54.64
2022-10-20T12:22:39.626Z,54.53
2022-10-20T12:23:43.763Z,54.57
2022-10-20T12:24:47.878Z,54.68
2022-10-20T12:25:52.000Z,54.75
2022-10-20T12:26:56.133Z,54.72
2022-10-20T12:29:04.339Z,54.81
2022-10-20T12:30:08.442Z,54.8
2022-10-20T12:31:12.601Z,54.64
2022-10-20T12:32:16.716Z,54.59
2022-10-20T12:33:20.828Z,54.47
2022-10-20T12:34:24.963Z,54.5
2022-10-20T12:35:29.106Z,54.55
2022-10-20T12:36:33.450Z,54.48
2022-10-20T12:37:40.190Z,54.4
2022-10-20T12:38:46.489Z,54.42
2022-10-20T12:39:50.572Z,54.49
2022-10-20T12:40:54.677Z,54.56
2022-10-20T12:41:58.786Z,54.68
2022-10-20T12:43:02.922Z,54.7
2022-10-20T12:44:07.052Z,54.73
2022-10-20T12:45:11.187Z,54.74
2022-10-20T12:46:15.408Z,54.75
2022-10-20T12:47:19.570Z,54.8
2022-10-20T12:48:23.671Z,54.84
2022-10-20T12:49:27.802Z,54.9
2022-10-20T12:50:31.907Z,54.91
2022-10-20T12:51:36.038Z,54.88
2022-10-20T12:52:40.212Z,54.91
2022-10-20T12:53:44.322Z,54.89
2022-10-20T12:54:50.649Z,54.86
2022-10-20T12:55:54.741Z,54.81
2022-10-20T12:56:58.852Z,54.87
2022-10-20T12:58:03.029Z,54.88
2022-10-20T12:59:07.144Z,54.92
2022-10-20T13:00:11.349Z,54.98
2022-10-20T13:01:15.779Z,54.81
2022-10-20T13:02:19.941Z,54.84
2022-10-20T13:03:28.066Z,54.93
2022-10-20T13:04:32.250Z,54.91
2022-10-20T13:05:36.384Z,54.87
2022-10-20T13:06:40.856Z,54.98
2022-10-20T13:07:45.133Z,55.12
2022-10-20T13:08:49.689Z,55.16
2022-10-20T13:09:54.308Z,55.11
2022-10-20T13:10:58.436Z,54.52
2022-10-20T13:12:04.310Z,54.56
2022-10-20T13:13:08.693Z,54.52
2022-10-20T13:14:14.929Z,54.71
2022-10-20T13:15:19.085Z,55.01
2022-10-20T13:16:23.260Z,55.14
2022-10-20T13:17:27.393Z,55.23
2022-10-20T13:18:31.716Z,55.2
2022-10-20T13:19:35.944Z,55.28
2022-10-20T13:20:40.101Z,55.07
2022-10-20T13:21:50.731Z,55.15
2022-10-20T13:22:55.096Z,55.31
2022-10-20T13:23:59.334Z,55.2
2022-10-20T13:25:04.107Z,55.08
2022-10-20T13:26:08.282Z,54.75
2022-10-20T13:27:12.404Z,54.82
2022-10-20T13:28:16.560Z,54.78
2022-10-20T13:29:20.653Z,54.82
2022-10-20T13:30:25.011Z,55.16
2022-10-20T13:31:29.158Z,55.11
2022-10-20T13:32:33.399Z,55.23
2022-10-20T13:34:06.634Z,55.42
2022-10-20T13:35:10.845Z,55.45
2022-10-20T13:36:14.978Z,55.23
2022-10-20T13:37:24.490Z,55.29
2022-10-20T13:38:28.568Z,55.34
2022-10-20T13:39:32.669Z,55.35
2022-10-20T13:40:38.664Z,55.38
2022-10-20T13:41:48.931Z,55.34
2022-10-20T13:42:53.067Z,55.34
2022-10-20T13:44:04.331Z,55.36
2022-10-20T13:45:08.651Z,55.38
2022-10-20T13:46:12.791Z,55.4
2022-10-20T13:47:16.931Z,55.37
2022-10-20T13:48:21.041Z,55.31
2022-10-20T13:49:25.152Z,55.29
2022-10-20T13:50:29.259Z,55.26
2022-10-20T13:51:33.439Z,55.25
2022-10-20T13:52:38.786Z,55.19
2022-10-20T13:53:43.115Z,55.16
2022-10-20T13:54:47.249Z,55.12
2022-10-20T13:55:51.379Z,55.07
2022-10-20T13:56:55.538Z,55.08
2022-10-20T13:57:59.639Z,55.08